Time;durP1;ratioP1;P1;durP2;ratioP2;P2;SDS_P1;SDS_P2;PMS_P1;PMS_P2;Temp;Humidity;BMP_temperature;BMP_pressure;BME280_temperature;BME280_humidity;BME280_pressure;Samples;Min_cycle;Max_cycle;Signal;HPM_P1;HPM_P2
2021/08/20 08:01:44;;;;;;;5.47;3.78;;;;;;;;;;5146972;27;20650;-54
2021/08/20 08:04:12;;;;;;;5.45;3.78;;;;;;;;;;5140377;27;20479;-54
2021/08/20 08:06:39;;;;;;;4.40;3.60;;;;;;;;;;5136292;27;20465;-59
2021/08/20 08:09:05;;;;;;;4.70;3.67;;;;;;;;;;5147586;27;20370;-59
2021/08/20 08:11:31;;;;;;;6.05;3.80;;;;;;;;;;5140403;27;20486;-60
2021/08/20 08:14:06;;;;;;;4.47;3.30;;;;;;;;;;5133803;27;20407;-59
2021/08/20 08:16:36;;;;;;;4.28;3.10;;;;;;;;;;5159568;27;20417;-54
2021/08/20 08:19:03;;;;;;;5.53;3.30;;;;;;;;;;5135091;27;20427;-55
2021/08/20 08:21:29;;;;;;;3.92;3.20;;;;;;;;;;5145566;27;20373;-54
2021/08/20 08:23:56;;;;;;;4.53;3.40;;;;;;;;;;5147340;27;20411;-53
2021/08/20 08:26:23;;;;;;;4.70;3.20;;;;;;;;;;5140213;27;20425;-54
2021/08/20 08:28:50;;;;;;;5.07;3.58;;;;;;;;;;5132514;27;20384;-60
2021/08/20 08:31:16;;;;;;;4.60;3.20;;;;;;;;;;5147229;27;20427;-60
2021/08/20 08:33:42;;;;;;;4.30;3.42;;;;;;;;;;5146883;27;20509;-59
2021/08/20 08:36:09;;;;;;;4.22;3.38;;;;;;;;;;5147064;27;20405;-59
2021/08/20 08:38:36;;;;;;;4.90;3.50;;;;;;;;;;5146750;27;20419;-57
2021/08/20 08:41:03;;;;;;;4.75;3.20;;;;;;;;;;5141406;27;20461;-70
2021/08/20 08:43:30;;;;;;;5.03;3.20;;;;;;;;;;5145206;27;20790;-67
2021/08/20 08:45:57;;;;;;;5.10;3.20;;;;;;;;;;5147434;27;20399;-66
2021/08/20 08:48:24;;;;;;;3.65;2.75;;;;;;;;;;5145148;27;20393;-56
2021/08/20 08:50:50;;;;;;;4.03;2.83;;;;;;;;;;5140577;27;20386;-58
2021/08/20 08:53:17;;;;;;;3.83;2.67;;;;;;;;;;5135037;27;20378;-59
2021/08/20 08:55:47;;;;;;;4.35;2.92;;;;;;;;;;5140893;27;20387;-59
2021/08/20 08:58:13;;;;;;;3.95;2.85;;;;;;;;;;5144036;27;20378;-59
2021/08/20 09:00:39;;;;;;;4.85;3.03;;;;;;;;;;5144063;27;20835;-60
2021/08/20 09:03:05;;;;;;;3.60;2.70;;;;;;;;;;5131128;27;20374;-63
2021/08/20 09:05:45;;;;;;;4.07;2.85;;;;;;;;;;5131380;27;20389;-64
2021/08/20 09:08:15;;;;;;;3.95;3.15;;;;;;;;;;5145819;27;20380;-60
2021/08/20 09:10:49;;;;;;;4.30;3.13;;;;;;;;;;5132388;27;20374;-57
2021/08/20 09:13:15;;;;;;;4.45;2.97;;;;;;;;;;5124289;27;20373;-62
2021/08/20 09:15:42;;;;;;;4.38;3.03;;;;;;;;;;5129136;27;20466;-60
2021/08/20 09:18:08;;;;;;;3.40;2.90;;;;;;;;;;5129386;27;20393;-62
2021/08/20 09:20:36;;;;;;;3.47;2.80;;;;;;;;;;5127110;27;20781;-64
2021/08/20 09:23:04;;;;;;;4.40;2.63;;;;;;;;;;5131048;27;20497;-63
2021/08/20 09:25:43;;;;;;;4.05;2.80;;;;;;;;;;5125760;27;20389;-58
2021/08/20 09:28:10;;;;;;;4.85;2.90;;;;;;;;;;5131014;27;20402;-61
2021/08/20 09:30:36;;;;;;;4.13;2.97;;;;;;;;;;5135194;27;20378;-64
2021/08/20 09:33:02;;;;;;;3.37;2.70;;;;;;;;;;5129449;27;20423;-66
2021/08/20 09:35:36;;;;;;;3.58;2.65;;;;;;;;;;5128905;27;20385;-66
2021/08/20 09:38:12;;;;;;;3.80;2.50;;;;;;;;;;5125564;27;20367;-65
2021/08/20 09:40:40;;;;;;;3.20;2.47;;;;;;;;;;5129355;27;20402;-70
2021/08/20 09:43:19;;;;;;;3.28;2.60;;;;;;;;;;5135009;27;21581;-68
2021/08/20 09:45:59;;;;;;;3.78;2.50;;;;;;;;;;5114581;27;20387;-62
2021/08/20 09:48:40;;;;;;;3.13;2.60;;;;;;;;;;5131827;27;20383;-75
2021/08/20 09:51:06;;;;;;;3.72;2.60;;;;;;;;;;5120282;27;20969;-66
2021/08/20 09:53:32;;;;;;;3.22;2.30;;;;;;;;;;5123716;27;20390;-68
2021/08/20 09:56:01;;;;;;;3.17;2.33;;;;;;;;;;5129589;27;20839;-72
2021/08/20 09:58:28;;;;;;;3.58;2.40;;;;;;;;;;5112012;27;20402;-73
2021/08/20 10:00:54;;;;;;;3.53;2.60;;;;;;;;;;5131019;27;20407;-64
2021/08/20 10:03:20;;;;;;;3.10;2.30;;;;;;;;;;5131181;27;20363;-65
2021/08/20 10:05:49;;;;;;;3.40;2.47;;;;;;;;;;5129606;27;20378;-70
2021/08/20 10:08:16;;;;;;;2.70;2.22;;;;;;;;;;5126029;27;20664;-67
2021/08/20 10:10:44;;;;;;;2.90;2.35;;;;;;;;;;5137323;27;20405;-71
2021/08/20 10:13:11;;;;;;;3.08;2.40;;;;;;;;;;5124587;27;20375;-68
2021/08/20 10:15:37;;;;;;;3.10;2.40;;;;;;;;;;5131142;27;20753;-64
2021/08/20 10:18:05;;;;;;;3.10;2.47;;;;;;;;;;5131110;27;20370;-65
2021/08/20 10:20:34;;;;;;;3.40;2.40;;;;;;;;;;5140182;27;20385;-67
2021/08/20 10:23:03;;;;;;;3.72;2.47;;;;;;;;;;5132386;27;20435;-67
2021/08/20 10:25:31;;;;;;;3.75;2.40;;;;;;;;;;5122651;27;20379;-67
2021/08/20 10:27:57;;;;;;;3.22;2.60;;;;;;;;;;5121272;27;20485;-67
2021/08/20 10:30:24;;;;;;;4.53;2.40;;;;;;;;;;5134905;27;20422;-67
2021/08/20 10:33:06;;;;;;;3.33;2.35;;;;;;;;;;5127155;27;20405;-67
2021/08/20 10:36:01;;;;;;;3.57;2.57;;;;;;;;;;5129647;27;20383;-67
2021/08/20 10:38:40;;;;;;;4.32;2.30;;;;;;;;;;5116454;27;20383;-68
2021/08/20 10:41:10;;;;;;;3.38;2.30;;;;;;;;;;5122846;27;20683;-68
2021/08/20 10:43:48;;;;;;;2.65;2.20;;;;;;;;;;5128896;27;20890;-66
2021/08/20 10:46:36;;;;;;;3.40;2.38;;;;;;;;;;5129713;27;20398;-67
2021/08/20 10:51:49;;;;;;;4.20;2.47;;;;;;;;;;5127239;27;20493;-68
2021/08/20 10:54:24;;;;;;;2.60;2.40;;;;;;;;;;5130656;27;20699;-67
2021/08/20 10:56:50;;;;;;;2.92;2.60;;;;;;;;;;5130274;27;20385;-68
2021/08/20 10:59:34;;;;;;;2.83;2.20;;;;;;;;;;5121544;27;20385;-67
2021/08/20 11:02:19;;;;;;;3.33;2.47;;;;;;;;;;5108684;28;20419;-68
2021/08/20 11:05:00;;;;;;;3.97;2.50;;;;;;;;;;5103937;28;20404;-67
2021/08/20 11:07:35;;;;;;;3.47;2.60;;;;;;;;;;5097261;28;20730;-67
2021/08/20 11:10:10;;;;;;;3.22;2.65;;;;;;;;;;5109051;28;20517;-67
2021/08/20 11:12:40;;;;;;;3.28;2.45;;;;;;;;;;5108951;28;20385;-67
2021/08/20 11:15:18;;;;;;;3.35;2.78;;;;;;;;;;5118544;27;20423;-68
2021/08/20 11:18:05;;;;;;;3.75;2.60;;;;;;;;;;5109052;28;20468;-66
2021/08/20 11:20:31;;;;;;;3.63;2.60;;;;;;;;;;5090341;28;20491;-68
2021/08/20 11:23:06;;;;;;;3.67;2.63;;;;;;;;;;5109396;28;20463;-67
2021/08/20 11:25:58;;;;;;;3.47;2.60;;;;;;;;;;5114206;27;21070;-67
2021/08/20 11:28:43;;;;;;;2.80;2.30;;;;;;;;;;5083734;28;20472;-67
2021/08/20 11:31:10;;;;;;;2.73;2.40;;;;;;;;;;5079631;28;20471;-68
2021/08/20 11:33:40;;;;;;;3.60;2.63;;;;;;;;;;5081454;28;20915;-68
2021/08/20 11:36:16;;;;;;;2.90;2.30;;;;;;;;;;5089607;28;20390;-67
2021/08/20 11:38:43;;;;;;;3.35;2.22;;;;;;;;;;5109176;28;20824;-68
2021/08/20 11:41:19;;;;;;;3.08;2.10;;;;;;;;;;5108387;28;20411;-67
2021/08/20 11:43:50;;;;;;;3.10;2.35;;;;;;;;;;5108969;28;20388;-67
2021/08/20 11:46:16;;;;;;;3.25;2.50;;;;;;;;;;5089759;28;20384;-66
2021/08/20 11:48:42;;;;;;;3.57;2.30;;;;;;;;;;5108716;28;20380;-67
2021/08/20 11:51:09;;;;;;;2.83;2.30;;;;;;;;;;5089425;28;20567;-67
2021/08/20 11:53:35;;;;;;;3.00;2.43;;;;;;;;;;5090240;28;20377;-66
2021/08/20 11:56:09;;;;;;;2.50;2.23;;;;;;;;;;5108459;28;20372;-67
2021/08/20 11:58:35;;;;;;;3.25;2.40;;;;;;;;;;5107812;28;20487;-67
2021/08/20 12:01:02;;;;;;;3.25;2.30;;;;;;;;;;5115434;28;20416;-67
2021/08/20 12:03:28;;;;;;;3.00;2.00;;;;;;;;;;5107678;27;20376;-67
2021/08/20 12:06:07;;;;;;;3.00;2.20;;;;;;;;;;5113063;28;20395;-67
2021/08/20 12:08:34;;;;;;;3.35;2.28;;;;;;;;;;5127270;28;20414;-67
2021/08/20 12:11:00;;;;;;;2.47;2.00;;;;;;;;;;5128398;28;20406;-67
2021/08/20 12:13:26;;;;;;;2.27;1.90;;;;;;;;;;5126960;28;20458;-67
2021/08/20 12:15:52;;;;;;;2.70;2.13;;;;;;;;;;5127398;27;20911;-67
2021/08/20 12:18:25;;;;;;;2.45;1.73;;;;;;;;;;5128713;28;20394;-67
2021/08/20 12:20:52;;;;;;;2.60;2.00;;;;;;;;;;5128767;27;20449;-67
2021/08/20 12:23:18;;;;;;;2.80;1.90;;;;;;;;;;5126705;28;20749;-67
2021/08/20 12:25:44;;;;;;;2.38;2.00;;;;;;;;;;5127361;28;20469;-67
2021/08/20 12:28:12;;;;;;;2.95;2.30;;;;;;;;;;5124119;28;20390;-65
2021/08/20 12:30:39;;;;;;;3.05;1.80;;;;;;;;;;5126080;28;20760;-63
2021/08/20 12:33:05;;;;;;;2.50;1.92;;;;;;;;;;5129012;28;20846;-65
2021/08/20 12:35:31;;;;;;;2.75;1.90;;;;;;;;;;5128893;27;20524;-66
2021/08/20 12:38:04;;;;;;;2.30;1.92;;;;;;;;;;5132720;27;20363;-65
2021/08/20 12:40:36;;;;;;;3.40;1.92;;;;;;;;;;5132538;27;20378;-66
2021/08/20 12:43:03;;;;;;;2.35;1.80;;;;;;;;;;5121495;27;20474;-66
2021/08/20 12:45:29;;;;;;;2.90;1.90;;;;;;;;;;5128559;27;20385;-63
2021/08/20 12:48:06;;;;;;;5.68;4.32;;;;;;;;;;5131462;27;20443;-63
2021/08/20 12:50:33;;;;;;;19.65;17.85;;;;;;;;;;5130405;27;20402;-64
2021/08/20 12:53:02;;;;;;;25.33;23.10;;;;;;;;;;5115367;27;20454;-63
2021/08/20 12:55:38;;;;;;;33.35;30.55;;;;;;;;;;5140983;27;20407;-63
2021/08/20 12:58:04;;;;;;;37.70;34.50;;;;;;;;;;5130747;27;20387;-67
2021/08/20 13:00:35;;;;;;;38.20;34.95;;;;;;;;;;5122828;27;20409;-65
2021/08/20 13:03:01;;;;;;;36.50;33.40;;;;;;;;;;5127883;27;20410;-66
2021/08/20 13:05:28;;;;;;;31.88;29.17;;;;;;;;;;5137575;27;20437;-65
2021/08/20 13:07:54;;;;;;;28.88;26.48;;;;;;;;;;5122153;27;20491;-62
2021/08/20 13:10:21;;;;;;;25.55;23.45;;;;;;;;;;5121272;27;20799;-57
2021/08/20 13:12:47;;;;;;;24.05;21.95;;;;;;;;;;5128697;27;20390;-55
2021/08/20 13:15:15;;;;;;;22.65;20.65;;;;;;;;;;5131968;27;20492;-58
2021/08/20 13:17:42;;;;;;;20.25;18.45;;;;;;;;;;5124732;27;20381;-56
2021/08/20 13:20:08;;;;;;;17.53;15.93;;;;;;;;;;5129974;27;20886;-59
2021/08/20 13:22:35;;;;;;;16.52;14.93;;;;;;;;;;5128902;27;20835;-57
2021/08/20 13:25:01;;;;;;;15.18;13.77;;;;;;;;;;5130805;27;20386;-58
2021/08/20 13:27:27;;;;;;;13.57;12.38;;;;;;;;;;5127645;27;20371;-59
2021/08/20 13:29:53;;;;;;;13.63;12.43;;;;;;;;;;5130718;27;20459;-59
2021/08/20 13:32:19;;;;;;;11.93;10.83;;;;;;;;;;5130729;27;20386;-61
2021/08/20 13:34:45;;;;;;;11.57;10.47;;;;;;;;;;5106923;27;20375;-52
2021/08/20 13:37:12;;;;;;;11.03;10.03;;;;;;;;;;5128081;27;20710;-57
2021/08/20 13:39:38;;;;;;;11.10;10.00;;;;;;;;;;5130200;27;20363;-55
2021/08/20 13:42:04;;;;;;;9.65;8.82;;;;;;;;;;5130591;27;20371;-58
2021/08/20 13:44:30;;;;;;;8.32;7.53;;;;;;;;;;5126716;27;20429;-55
2021/08/20 13:46:57;;;;;;;8.00;7.25;;;;;;;;;;5130682;27;20370;-57
2021/08/20 13:49:23;;;;;;;7.78;7.07;;;;;;;;;;5124837;27;20371;-59
2021/08/20 13:51:49;;;;;;;7.32;6.60;;;;;;;;;;5129922;27;20381;-58
2021/08/20 13:54:15;;;;;;;7.03;6.35;;;;;;;;;;5125753;27;20378;-57
2021/08/20 13:56:42;;;;;;;6.75;6.05;;;;;;;;;;5130155;27;20365;-57
2021/08/20 13:59:08;;;;;;;6.70;6.10;;;;;;;;;;5130135;27;20390;-56
2021/08/20 14:01:34;;;;;;;6.40;5.80;;;;;;;;;;5130001;27;20395;-56
2021/08/20 14:04:00;;;;;;;6.15;5.55;;;;;;;;;;5131576;27;20387;-52
2021/08/20 14:06:28;;;;;;;5.70;5.20;;;;;;;;;;5128896;27;20371;-48
2021/08/20 14:08:54;;;;;;;5.78;5.28;;;;;;;;;;5130253;27;20458;-58
2021/08/20 14:11:21;;;;;;;5.55;5.00;;;;;;;;;;5128752;27;20894;-52
2021/08/20 14:13:47;;;;;;;5.25;4.80;;;;;;;;;;5130668;27;20411;-52
2021/08/20 14:16:13;;;;;;;5.32;4.82;;;;;;;;;;5130717;27;20420;-52
2021/08/20 14:18:39;;;;;;;5.30;4.80;;;;;;;;;;5121291;27;20383;-50
2021/08/20 14:21:07;;;;;;;5.40;4.90;;;;;;;;;;5118190;27;20394;-56
2021/08/20 14:23:33;;;;;;;5.30;4.90;;;;;;;;;;5123192;27;20777;-56
2021/08/20 14:25:59;;;;;;;5.40;4.90;;;;;;;;;;5129710;27;20371;-54
2021/08/20 14:28:25;;;;;;;5.03;4.53;;;;;;;;;;5128495;27;20377;-57
2021/08/20 14:30:51;;;;;;;3.50;3.20;;;;;;;;;;5128203;27;20402;-58
2021/08/20 14:33:19;;;;;;;4.30;3.70;;;;;;;;;;5130162;27;20382;-55
2021/08/20 14:35:46;;;;;;;4.10;3.70;;;;;;;;;;5129674;27;20403;-56
2021/08/20 14:38:12;;;;;;;3.80;3.50;;;;;;;;;;5122265;27;20383;-55
2021/08/20 14:40:38;;;;;;;4.63;3.70;;;;;;;;;;5127564;27;20394;-55
2021/08/20 14:43:04;;;;;;;4.72;3.40;;;;;;;;;;5124122;27;20386;-56
2021/08/20 14:45:30;;;;;;;4.18;2.90;;;;;;;;;;5128682;27;20388;-55
2021/08/20 14:47:56;;;;;;;3.58;3.00;;;;;;;;;;5129747;27;20800;-54
2021/08/20 14:50:22;;;;;;;3.25;2.90;;;;;;;;;;5129025;27;20870;-57
2021/08/20 14:52:48;;;;;;;3.13;2.83;;;;;;;;;;5128938;27;20375;-55
2021/08/20 14:55:15;;;;;;;3.55;2.72;;;;;;;;;;5116361;27;20375;-57
2021/08/20 14:57:41;;;;;;;3.75;2.65;;;;;;;;;;5129195;27;20423;-56
2021/08/20 15:00:07;;;;;;;3.40;2.40;;;;;;;;;;5128713;27;20527;-56
2021/08/20 15:02:36;;;;;;;3.17;2.70;;;;;;;;;;5124935;27;20389;-49
2021/08/20 15:05:02;;;;;;;3.10;2.45;;;;;;;;;;5129321;27;20450;-56
2021/08/20 15:07:29;;;;;;;2.65;2.45;;;;;;;;;;5124059;27;20403;-56
2021/08/20 15:09:55;;;;;;;2.83;2.30;;;;;;;;;;5129178;27;20905;-57
2021/08/20 15:12:26;;;;;;;2.65;2.20;;;;;;;;;;5126338;27;20378;-58
2021/08/20 15:14:52;;;;;;;3.58;2.50;;;;;;;;;;5119440;27;20406;-51
2021/08/20 15:17:18;;;;;;;4.28;2.42;;;;;;;;;;5127803;27;20463;-54
2021/08/20 15:19:44;;;;;;;3.13;2.33;;;;;;;;;;5116996;27;20378;-53
2021/08/20 15:22:10;;;;;;;2.97;2.30;;;;;;;;;;5129394;27;20371;-52
2021/08/20 15:24:37;;;;;;;3.30;2.22;;;;;;;;;;5129917;27;20355;-54
2021/08/20 15:27:03;;;;;;;3.37;2.10;;;;;;;;;;5129664;27;20374;-58
2021/08/20 15:29:29;;;;;;;3.25;2.33;;;;;;;;;;5116312;27;20365;-58
2021/08/20 15:31:56;;;;;;;2.40;1.92;;;;;;;;;;5110620;28;20398;-50
2021/08/20 15:34:22;;;;;;;2.88;2.15;;;;;;;;;;5128997;27;20367;-55
2021/08/20 15:36:48;;;;;;;3.25;2.28;;;;;;;;;;5129250;27;20365;-57
2021/08/20 15:39:14;;;;;;;3.65;2.17;;;;;;;;;;5129288;27;20729;-58
2021/08/20 15:41:41;;;;;;;2.40;2.10;;;;;;;;;;5123386;27;20405;-57
2021/08/20 15:44:08;;;;;;;2.70;2.13;;;;;;;;;;5118049;27;20494;-60
2021/08/20 15:46:34;;;;;;;3.20;1.90;;;;;;;;;;5127091;27;20363;-64
2021/08/20 15:49:01;;;;;;;3.45;2.10;;;;;;;;;;5127374;27;20370;-61
2021/08/20 15:51:28;;;;;;;4.10;2.10;;;;;;;;;;5113631;28;20391;-55
2021/08/20 15:53:54;;;;;;;3.85;1.98;;;;;;;;;;5129291;28;20369;-59
2021/08/20 15:56:21;;;;;;;2.38;2.00;;;;;;;;;;5114744;28;20461;-64
2021/08/20 15:58:47;;;;;;;2.40;1.77;;;;;;;;;;5121185;28;20748;-62
2021/08/20 16:01:13;;;;;;;2.10;1.70;;;;;;;;;;5128321;28;20451;-66
2021/08/20 16:03:39;;;;;;;2.50;1.80;;;;;;;;;;5127991;28;20378;-59
2021/08/20 16:06:05;;;;;;;3.22;1.80;;;;;;;;;;5119613;28;20375;-58
2021/08/20 16:08:32;;;;;;;2.20;1.60;;;;;;;;;;5128016;28;20390;-60
2021/08/20 16:10:58;;;;;;;2.60;1.80;;;;;;;;;;5128428;27;20429;-60
2021/08/20 16:13:24;;;;;;;2.67;1.70;;;;;;;;;;5131690;27;20843;-60
2021/08/20 16:15:50;;;;;;;2.38;1.73;;;;;;;;;;5128752;27;20369;-59
2021/08/20 16:18:16;;;;;;;2.65;1.80;;;;;;;;;;5131629;27;20947;-68
2021/08/20 16:20:44;;;;;;;2.22;1.60;;;;;;;;;;5132347;27;20449;-56
2021/08/20 16:23:10;;;;;;;2.55;1.70;;;;;;;;;;5132383;27;20469;-56
2021/08/20 16:25:36;;;;;;;2.92;1.65;;;;;;;;;;5131458;27;20859;-59
2021/08/20 16:28:02;;;;;;;2.10;1.60;;;;;;;;;;5130212;27;20423;-59
2021/08/20 16:30:28;;;;;;;2.87;1.93;;;;;;;;;;5132261;27;21036;-59
2021/08/20 16:32:55;;;;;;;2.20;1.60;;;;;;;;;;5130806;27;20358;-62
2021/08/20 16:35:22;;;;;;;2.03;1.73;;;;;;;;;;5129731;27;20962;-58
2021/08/20 16:37:48;;;;;;;2.10;1.60;;;;;;;;;;5132127;27;20401;-60
2021/08/20 16:40:14;;;;;;;2.65;1.60;;;;;;;;;;5120810;27;20391;-52
2021/08/20 16:42:41;;;;;;;2.05;1.52;;;;;;;;;;5118718;27;20410;-62
2021/08/20 16:45:07;;;;;;;2.70;1.90;;;;;;;;;;5130126;27;20378;-61
2021/08/20 16:47:33;;;;;;;2.13;1.77;;;;;;;;;;5132002;27;20453;-62
2021/08/20 16:49:59;;;;;;;3.07;1.50;;;;;;;;;;5132231;27;20387;-60
2021/08/20 16:52:25;;;;;;;1.75;1.45;;;;;;;;;;5121946;27;20438;-61
2021/08/20 16:54:52;;;;;;;2.33;1.70;;;;;;;;;;5132023;27;20355;-62
2021/08/20 16:57:19;;;;;;;2.00;1.67;;;;;;;;;;5130233;27;20363;-63
2021/08/20 16:59:45;;;;;;;1.90;1.55;;;;;;;;;;5130425;27;20474;-58
2021/08/20 17:02:11;;;;;;;2.15;1.42;;;;;;;;;;5131610;27;20481;-60
2021/08/20 17:04:40;;;;;;;2.53;1.60;;;;;;;;;;5131549;27;20370;-60
2021/08/20 17:07:06;;;;;;;2.10;1.45;;;;;;;;;;5131846;27;20895;-61
2021/08/20 17:09:32;;;;;;;3.88;1.70;;;;;;;;;;5131934;27;20732;-61
2021/08/20 17:12:01;;;;;;;2.53;1.60;;;;;;;;;;5121236;27;20857;-60
2021/08/20 17:14:27;;;;;;;2.15;1.65;;;;;;;;;;5113042;27;20378;-61
2021/08/20 17:16:53;;;;;;;3.22;1.88;;;;;;;;;;5131489;27;20871;-61
2021/08/20 17:19:19;;;;;;;2.17;1.50;;;;;;;;;;5131770;27;20378;-60
2021/08/20 17:21:46;;;;;;;2.97;1.67;;;;;;;;;;5131535;27;20789;-61
2021/08/20 17:24:12;;;;;;;4.90;2.13;;;;;;;;;;5131611;27;20363;-72
2021/08/20 17:26:40;;;;;;;4.32;2.03;;;;;;;;;;5130393;27;20428;-70
2021/08/20 17:29:07;;;;;;;6.03;1.90;;;;;;;;;;5129881;27;20367;-71
2021/08/20 17:31:33;;;;;;;3.20;1.83;;;;;;;;;;5129910;27;20494;-72
2021/08/20 17:34:00;;;;;;;6.77;2.00;;;;;;;;;;5129189;27;20375;-70
2021/08/20 17:36:26;;;;;;;3.40;1.90;;;;;;;;;;5131363;27;20702;-72
2021/08/20 17:38:53;;;;;;;3.28;1.92;;;;;;;;;;5131387;27;20454;-70
2021/08/20 17:41:19;;;;;;;3.80;1.83;;;;;;;;;;5131296;27;20551;-63
2021/08/20 17:43:46;;;;;;;3.43;1.93;;;;;;;;;;5131326;27;20387;-68
2021/08/20 17:46:12;;;;;;;3.67;2.03;;;;;;;;;;5130371;27;20383;-66
2021/08/20 17:48:38;;;;;;;4.40;2.10;;;;;;;;;;5131184;27;20375;-66
2021/08/20 17:51:04;;;;;;;3.17;2.13;;;;;;;;;;5131012;27;20854;-66
2021/08/20 17:53:33;;;;;;;3.47;1.83;;;;;;;;;;5112678;27;20379;-66
2021/08/20 17:55:59;;;;;;;2.55;1.80;;;;;;;;;;5112737;27;20926;-66
2021/08/20 17:58:27;;;;;;;3.33;1.98;;;;;;;;;;5130933;27;20378;-66
2021/08/20 18:00:53;;;;;;;2.90;2.25;;;;;;;;;;5113113;27;20868;-66
2021/08/20 18:03:22;;;;;;;2.78;2.20;;;;;;;;;;5130861;27;20394;-64
2021/08/20 18:05:48;;;;;;;2.60;2.10;;;;;;;;;;5112525;27;20375;-66
2021/08/20 18:08:14;;;;;;;3.30;2.22;;;;;;;;;;5112449;27;20385;-66
2021/08/20 18:10:40;;;;;;;3.08;2.30;;;;;;;;;;5112326;27;20877;-67
2021/08/20 18:13:09;;;;;;;3.65;2.55;;;;;;;;;;5116879;27;20382;-65
2021/08/20 18:15:36;;;;;;;2.55;2.08;;;;;;;;;;5112264;27;20370;-66
2021/08/20 18:18:07;;;;;;;3.13;2.20;;;;;;;;;;5131031;27;20366;-68
2021/08/20 18:20:33;;;;;;;3.10;2.20;;;;;;;;;;5115348;27;20452;-66
2021/08/20 18:22:59;;;;;;;2.58;2.10;;;;;;;;;;5133108;27;20375;-66
2021/08/20 18:25:26;;;;;;;2.28;2.00;;;;;;;;;;5130719;27;20365;-67
2021/08/20 18:27:52;;;;;;;2.97;2.10;;;;;;;;;;5130135;27;21717;-65
2021/08/20 18:30:20;;;;;;;3.08;2.05;;;;;;;;;;5130422;27;20503;-66
2021/08/20 18:32:47;;;;;;;3.15;2.28;;;;;;;;;;5125419;27;20431;-68
2021/08/20 18:35:13;;;;;;;3.90;2.60;;;;;;;;;;5125435;27;20875;-67
2021/08/20 18:37:39;;;;;;;2.38;2.17;;;;;;;;;;5130104;27;20354;-67
2021/08/20 18:40:11;;;;;;;3.20;2.15;;;;;;;;;;5111784;27;20402;-64
2021/08/20 18:42:41;;;;;;;2.40;2.15;;;;;;;;;;5110867;27;20410;-63
2021/08/20 18:45:07;;;;;;;2.77;2.37;;;;;;;;;;5111481;27;20896;-66
2021/08/20 18:47:33;;;;;;;10.82;9.07;;;;;;;;;;5124726;27;20867;-67
2021/08/20 18:49:59;;;;;;;38.22;29.17;;;;;;;;;;5116796;27;20880;-66
2021/08/20 18:52:25;;;;;;;45.58;36.65;;;;;;;;;;5129636;27;20351;-63
2021/08/20 18:54:51;;;;;;;44.65;36.25;;;;;;;;;;5129698;27;20363;-57
2021/08/20 18:57:18;;;;;;;35.05;29.58;;;;;;;;;;5129382;27;20397;-64
2021/08/20 18:59:44;;;;;;;30.17;23.77;;;;;;;;;;5129573;27;20394;-53
2021/08/20 19:02:10;;;;;;;27.67;20.40;;;;;;;;;;5103492;27;20385;-60
2021/08/20 19:04:36;;;;;;;22.17;17.33;;;;;;;;;;5123960;27;20379;-61
2021/08/20 19:07:02;;;;;;;18.90;15.35;;;;;;;;;;5129158;27;20427;-60
2021/08/20 19:09:29;;;;;;;14.43;11.43;;;;;;;;;;5110531;27;20851;-61
2021/08/20 19:11:56;;;;;;;12.40;10.15;;;;;;;;;;5108449;27;20381;-60
2021/08/20 19:14:22;;;;;;;10.32;7.60;;;;;;;;;;5128787;27;20514;-60
2021/08/20 19:16:50;;;;;;;6.65;5.65;;;;;;;;;;5128997;27;20470;-60
2021/08/20 19:19:17;;;;;;;5.70;4.57;;;;;;;;;;5128839;27;20410;-60
2021/08/20 19:21:43;;;;;;;6.82;4.70;;;;;;;;;;5128746;27;20367;-59
2021/08/20 19:24:09;;;;;;;6.72;4.72;;;;;;;;;;5129562;27;20827;-59
2021/08/20 19:26:36;;;;;;;5.20;4.35;;;;;;;;;;5110316;27;20367;-59
2021/08/20 19:29:02;;;;;;;4.63;3.60;;;;;;;;;;5111013;27;20764;-61
2021/08/20 19:31:28;;;;;;;4.63;3.50;;;;;;;;;;5129296;27;20413;-61
2021/08/20 19:33:56;;;;;;;4.78;3.50;;;;;;;;;;5125711;27;20375;-61
2021/08/20 19:36:23;;;;;;;5.13;3.70;;;;;;;;;;5109796;27;20378;-60
2021/08/20 19:38:49;;;;;;;5.23;3.60;;;;;;;;;;5111038;28;20374;-62
2021/08/20 19:41:15;;;;;;;4.97;3.40;;;;;;;;;;5122138;27;20380;-61
2021/08/20 19:43:41;;;;;;;4.20;3.50;;;;;;;;;;5129718;27;20366;-61
2021/08/20 19:46:13;;;;;;;4.72;3.40;;;;;;;;;;5130012;27;20421;-61
2021/08/20 19:48:42;;;;;;;5.07;3.28;;;;;;;;;;5111123;27;20458;-61
2021/08/20 19:51:08;;;;;;;4.63;3.20;;;;;;;;;;5101446;28;20415;-61
2021/08/20 19:53:34;;;;;;;4.32;3.00;;;;;;;;;;5109897;27;20432;-61
